Frying Pan Shoals, NC (41013)

Conditions for Tuesday

Daily
Weekly
Monthly
Marine Data Graph

Marine & Boating Location Search

Enter a coastal zip code for marine weather.

General Information

Location: 33.436 North -77.743 West
Buoy Type: 2.3-meter foam discus buoy
Buoy Hull: 2.3D01
Payload: SCOOP payload
Owned by: NDBC
Windspeed: Measured by obtained from anemometer
Sea Surface: Measured by Intake
Note: Right whales are active off NC from November to April. Speed restrictions of 10 knots apply to vessels 65 feet or greater in specific areas and times along the mid-Atlantic coast. To learn more about right whales and rules protecting them, go to: http://www.nmfs.noaa.gov/pr/shipstrike/

Weather and Wave Data

Time Temp Humidity Wind Dominant Wave Wind Wave Wave Swell Pressure
  Air
(°F)
Water
(°F)
  Dir Speed
(kts)
Speed
(mph)
Period
(sec)
Height
(ft)
Range
(ft)
Period
(sec)
Height
(ft)
Range
(ft)
Period
(sec)
Height
(ft)
Range
(ft)
Atmo.
(in)
Tend.
(in)
20:10 72 77 72 East 7.8 8.9 - - - - - - 30.06 -
20:30 72 77 73 East 5.8 6.7 - - - - - - 30.06 -
20:40 72 77 73 ENE 7.8 8.9 - - - - - - 30.05 -
20:50 72 77 74 East 7.8 8.9 6 2.30 exactly 2.3 4 1.64 0.82 - 2.46 6 1.64 0.82 - 2.46 30.04 -
21:00 72
-
73 East 7.8 8.9 - - - - - - 30.05 +0.01
21:30 72
-
74 East 7.8 8.9 - - - - - - 30.06 -
21:50 72 77 75 East 7.8 8.9 7 2.30 exactly 2.3 3 1.64 0.82 - 2.46 7 1.64 0.82 - 2.46 30.06 -
22:10 72 77 75 East 7.8 8.9 - - - - - - 30.06 -
22:20 72 77 75 East 9.7 11.2 - - - - - - 30.06 -
22:30 72 77 75 East 9.7 11.2 - - - - - - 30.06 -
22:40 73 77 72 East 9.7 11.2 - - - - - - 30.06 -
23:00 73
-
72 East 7.8 8.9 - - - - - - 30.06 -
23:10 73 77 72 East 9.7 11.2 - - - - - - 30.05 -
23:40 73 77 73 East 7.8 8.9 - - - - - - 30.06 -
23:50 73 77 73 ESE 7.8 8.9 6 2.30 exactly 2.3 4 1.64 0.82 - 2.46 6 1.64 0.82 - 2.46 30.05 -
00:10 73 77 75 East 7.8 8.9 - - - - - - 30.05 -
00:30 73 77 75 East 7.8 8.9 - - - - - - 30.04 -
00:40 73
-
75 East 7.8 8.9 - - - - - - 30.04 -
00:50 73 77 75 East 7.8 8.9 6 2.30 exactly 2.3 3 1.64 0.82 - 2.46 6 1.64 0.82 - 2.46 30.03 -
01:00 73 77 75 East 9.7 11.2 - - - - - - 30.02 -0.04
01:10 73 77 76 East 9.7 11.2 - - - - - - 30.02 -
01:20 73 77 76 East 9.7 11.2 - - - - - - 30.02 -
01:30 74 77 74 East 9.7 11.2 - - - - - - 30.02 -
01:50 74 77 74 East 9.7 11.2 6 2.30 exactly 2.3 5 1.64 0.82 - 2.46 6 1.64 0.82 - 2.46 30.02 -
02:10 74 77 76 East 9.7 11.2 - - - - - - 30.01 -
02:20 74 77 77 East 9.7 11.2 - - - - - - 30.01 -
02:40 74 77 78 East 9.7 11.2 - - - - - - 30.01 -
02:50 74 77 78 East 9.7 11.2 6 2.30 exactly 2.3 4 1.64 0.82 - 2.46 6 1.64 0.82 - 2.46 30.02 -
03:20 74 77 80 ENE 9.7 11.2 - - - - - - 30.01 -
03:50 75 77 79 East 9.7 11.2 6 1.97 exactly 2.0 3 1.64 0.82 - 2.46 6 1.64 0.82 - 2.46 30.00 -
04:10 75 77 79 East 11.7 13.4 - - - - - - 29.99 -
04:20 75 77 81 East 11.7 13.4 - - - - - - 29.98 -
04:30 75 77 81 East 9.7 11.2 - - - - - - 29.98 -
04:40 76 77 76 SE 9.7 11.2 - - - - - - 29.98 -
04:50 76 77 74 SSE 11.7 13.4 6 2.30 exactly 2.3 5 1.64 0.82 - 2.46 6 1.64 0.82 - 2.46 29.98 -
05:00 76
-
74 SSE 13.6 15.7 - - - - - - 29.98 -0.05
05:10 76 77 75 SSE 13.6 15.7 - - - - - - 29.98 -
05:20 76 77 75 SSE 13.6 15.7 - - - - - - 29.98 -
05:30 76 77 75 SSE 13.6 15.7 - - - - - - 29.97 -
06:00 76
-
76 SSE 13.6 15.7 - - - - - - 29.97 -0.05
06:10 76 77 76 SSE 11.7 13.4 - - - - - - 29.99 -
06:20 76 77 77 SSE 9.7 11.2 - - - - - - 29.97 -
06:50 76 77 76 SSE 11.7 13.4 9 2.62 exactly 2.6 4 1.64 0.82 - 2.46 9 1.64 0.82 - 2.46 29.97 -
07:00 76
-
76 SSE 13.6 15.7 - - - - - - 29.96 -0.02
07:30 76 77 76 SE 13.6 15.7 - - - - - - 29.95 -
07:50 76 77 76 SE 13.6 15.7 4 2.62 exactly 2.6 4 1.64 0.82 - 2.46 9 1.64 0.82 - 2.46 29.95 -
08:20 76 77 80 SE 17.5 20.1 - - - - - - 29.95 -
08:30 76 77 80 SE 17.5 20.1 - - - - - - 29.95 -
08:40 76
-
81 SE 17.5 20.1 - - - - - - 29.94 -
08:50 76 77 81 SE 15.6 17.9 4 2.95 exactly 3.0 4 3.28 2.46 - 4.10 8 1.64 0.82 - 2.46 29.94 -
09:00 76
-
82 SE 17.5 20.1 - - - - - - 29.95 -0.02
09:20 76 77 86 SE 15.6 17.9 - - - - - - 29.94 -
09:40 77 77 84 SE 19.4 22.4 - - - - - - 29.92 -
09:50 77 77 85 SE 19.4 22.4 4 3.28 exactly 3.3 4 3.28 2.46 - 4.10 10 1.64 0.82 - 2.46 29.92 -
10:00 78
-
83 SE 21.4 24.6 - - - - - - 29.92 -0.05
10:10 78
-
84 SSE 19.4 22.4 - - - - - - 29.92 -
10:20 78 77 87 SSE 17.5 20.1 - - - - - - 29.93 -
10:30 78 77 88 SSE 17.5 20.1 - - - - - - 29.92 -
10:50 78 77 90 SSE 17.5 20.1 5 3.94 exactly 3.9 5 3.28 2.46 - 4.10 10 1.64 0.82 - 2.46 29.93 -
11:10 78 77 90 South 17.5 20.1 - - - - - - 29.93 -
11:30 78 77 88 South 13.6 15.7 - - - - - - 29.92 -
11:40 79 77 85 SSW 13.6 15.7 - - - - - - 29.92 -
12:00 79
-
86 SW 13.6 15.7 - - - - - - 29.91 -0.03
12:20 79 78 86 SSW 15.6 17.9 - - - - - - 29.91 -
12:30 79 78 86 SSW 13.6 15.7 - - - - - - 29.91 -
12:40 79 78 87 SW 13.6 15.7 - - - - - - 29.90 -
12:50 79 78 87 SW 13.6 15.7 5 3.94 exactly 3.9 5 3.28 2.46 - 4.10 9 1.64 0.82 - 2.46 29.90 -
13:10 79 78 87 SW 15.6 17.9 - - - - - - 29.88 -
13:20 79 78 87 SW 15.6 17.9 - - - - - - 29.88 -
13:30 79 78 86 SW 15.6 17.9 - - - - - - 29.88 -
14:00 79
-
85 SW 15.6 17.9 - - - - - - 29.86 -0.06
14:10 79 78 85 SW 13.6 15.7 - - - - - - 29.86 -
14:20 79 78 85 SW 13.6 15.7 - - - - - - 29.86 -
14:30 79 78 85 SW 13.6 15.7 - - - - - - 29.85 -
15:20 79 78 85 SW 15.6 17.9 - - - - - - 29.83 -
15:30 79 78 86 SW 15.6 17.9 - - - - - - 29.84 -
16:00 79
-
86 SW 17.5 20.1 - - - - - - 29.84 -0.05
16:10 79 78 85 SW 15.6 17.9 - - - - - - 29.84 -
16:20 79 78 85 SW 17.5 20.1 - - - - - - 29.84 -
16:30 79 78 84 SW 17.5 20.1 - - - - - - 29.84 -
16:40 79 78 84 SW 17.5 20.1 - - - - - - 29.84 -
16:50 79 78 84 SW 17.5 20.1 6 4.59 exactly 4.6 6 4.92 4.10 - 5.74 9 1.64 0.82 - 2.46 29.84 -
17:10 79 78 85 SW 17.5 20.1 - - - - - - 29.84 -
17:20 79 78 84 SW 17.5 20.1 - - - - - - 29.83 -
18:20 78 78 88 SW 17.5 20.1 - - - - - - 29.84 -
18:30 78 78 88 SW 19.4 22.4 - - - - - - 29.84 -
18:40 78 78 88 SW 17.5 20.1 - - - - - - 29.85 -
18:50 78 78 88 SW 15.6 17.9 6 4.92 exactly 4.9 6 4.92 4.10 - 5.74 11 1.64 0.82 - 2.46 29.85 -
19:10 78 78 88 SW 15.6 17.9 - - - - - - 29.85 -
19:20 78 78 88 SW 17.5 20.1 - - - - - - 29.85 -
19:30 78 78 87 SW 15.6 17.9 - - - - - - 29.86 -
19:40 78 78 87 SW 17.5 20.1 - - - - - - 29.86 -
19:50 79 78 83 SW 15.6 17.9 6 4.59 exactly 4.6 6 4.92 4.10 - 5.74 11 1.64 0.82 - 2.46 29.86 -
20:10 79 78 84 SW 15.6 17.9 - - - - - - 29.86 -
20:20 79 78 84 SW 17.5 20.1 - - - - - - 29.86 -
21:20 79 78 85 SW 15.6 17.9 - - - - - - 29.88 -
21:50 79 78 85 SW 15.6 17.9 6 4.92 exactly 4.9 6 4.92 4.10 - 5.74 10 1.64 0.82 - 2.46 29.89 -
22:10 78 78 87 WSW 15.6 17.9 - - - - - - 29.89 -
22:40 78 78 85 WSW 15.6 17.9 - - - - - - 29.90 -
22:50 78 78 84 WSW 15.6 17.9 6 4.59 exactly 4.6 6 4.92 4.10 - 5.74 10 1.64 0.82 - 2.46 29.90 -
23:00 78
-
84 West 15.6 17.9 - - - - - - 29.90 +0.04
23:10 78 78 82 West 15.6 17.9 - - - - - - 29.90 -
23:20 78 78 81 West 17.5 20.1 - - - - - - 29.90 -
23:30 78 78 78 West 17.5 20.1 - - - - - - 29.90 -
23:50 77 78 74 WNW 17.5 20.1 6 4.59 exactly 4.6 6 4.92 4.10 - 5.74 10 1.64 0.82 - 2.46 29.90 -
00:10 78 78 43 WNW 21.4 24.6 - - - - - - 29.91 -
00:20 77 78 42 WNW 21.4 24.6 - - - - - - 29.91 -
00:30 77 78 46 WNW 19.4 22.4 - - - - - - 29.89 -
01:00 76
-
49 WNW 19.4 22.4 - - - - - - 29.91 +0.02
01:20 76 78 44 WNW 21.4 24.6 - - - - - - 29.92 -
01:30 75 78 47 WNW 19.4 22.4 - - - - - - 29.92 -
01:50 74 78 46 WNW 19.4 22.4 6 4.92 exactly 4.9 6 4.92 4.10 - 5.74 11 1.64 0.82 - 2.46 29.93 -
02:20 74 78 44 WNW 19.4 22.4 - - - - - - 29.93 -
02:40 73 78 47 WNW 19.4 22.4 - - - - - - 29.93 -
02:50 73 78 46 WNW 19.4 22.4 6 5.25 exactly 5.2 6 4.92 4.10 - 5.74 11 1.64 0.82 - 2.46 29.93 -
03:10 73 78 43 WNW 19.4 22.4 - - - - - - 29.93 -
03:20 73 78 43 WNW 19.4 22.4 - - - - - - 29.94 -
03:40 73 78 43 WNW 19.4 22.4 - - - - - - 29.94 -

Detailed Wave Spectra

Time Water Depth Wave Height Spectral Peak Period Average Wave Period Sampling Interval Wave Record
20:00 79 ft 2.33 ft 6.7 sec 4.8 sec 0.6 sec 2400 sec
22:00 79 ft 2.33 ft 6.7 sec 5.0 sec 0.6 sec 2400 sec
02:00 79 ft 2.17 ft 6.3 sec 4.9 sec 0.6 sec 2400 sec
03:00 79 ft 2.23 ft 5.9 sec 4.8 sec 0.6 sec 2400 sec
04:00 79 ft 2.07 ft 5.9 sec 4.3 sec 0.6 sec 2400 sec
13:00 79 ft 4.10 ft 4.5 sec 4.3 sec 0.6 sec 2400 sec
15:00 79 ft 4.63 ft 5.6 sec 4.7 sec 0.6 sec 2400 sec
18:00 79 ft 4.82 ft 6.3 sec 4.8 sec 0.6 sec 2400 sec
19:00 79 ft 4.82 ft 5.9 sec 4.7 sec 0.6 sec 2400 sec
20:00 79 ft 4.56 ft 6.3 sec 4.8 sec 0.6 sec 2400 sec
22:00 79 ft 4.82 ft 5.9 sec 4.8 sec 0.6 sec 2400 sec
00:00 79 ft 4.53 ft 5.9 sec 4.7 sec 0.6 sec 2400 sec
03:00 79 ft 5.12 ft 5.6 sec 4.7 sec 0.6 sec 2400 sec